createdAt,value
2023-05-24T00:01:59.995Z,14.23
2023-05-24T00:04:30.635Z,12.40
2023-05-24T00:06:58.313Z,8.87
2023-05-24T00:09:24.878Z,11.37
2023-05-24T00:11:51.476Z,12.07
2023-05-24T00:14:18.030Z,10.17
2023-05-24T00:16:46.827Z,12.10
2023-05-24T00:19:18.665Z,8.30
2023-05-24T00:21:46.128Z,15.07
2023-05-24T00:24:17.339Z,15.03
2023-05-24T00:26:44.086Z,10.90
2023-05-24T00:29:10.688Z,8.43
2023-05-24T00:31:37.520Z,13.50
2023-05-24T00:34:04.086Z,10.97
2023-05-24T00:36:31.422Z,13.07
2023-05-24T00:38:57.939Z,13.10
2023-05-24T00:41:24.488Z,11.80
2023-05-24T00:43:51.098Z,12.17
2023-05-24T00:46:44.136Z,9.97
2023-05-24T00:49:10.749Z,12.23
2023-05-24T00:51:38.618Z,12.33
2023-05-24T00:54:05.243Z,13.97
2023-05-24T00:56:34.398Z,12.87
2023-05-24T00:59:01.568Z,14.83
2023-05-24T01:01:31.369Z,8.27
2023-05-24T01:04:00.227Z,14.43
2023-05-24T01:06:28.430Z,15.57
2023-05-24T01:09:08.370Z,14.07
2023-05-24T01:11:53.702Z,11.80
2023-05-24T01:14:29.371Z,11.53
2023-05-24T01:17:05.376Z,15.07
2023-05-24T01:19:43.562Z,9.90
2023-05-24T01:22:29.118Z,11.73
2023-05-24T01:24:55.659Z,10.93
2023-05-24T01:27:23.055Z,12.67
2023-05-24T01:29:53.623Z,8.90
2023-05-24T01:32:20.633Z,12.80
2023-05-24T01:34:47.320Z,11.23
2023-05-24T01:37:14.004Z,14.03
2023-05-24T01:39:40.862Z,16.33
2023-05-24T01:42:26.052Z,15.53
2023-05-24T01:45:04.819Z,18.87
2023-05-24T01:47:39.335Z,15.00
2023-05-24T01:50:18.718Z,14.70
2023-05-24T01:52:46.267Z,17.13
2023-05-24T01:55:15.272Z,13.37
2023-05-24T01:57:44.032Z,12.93
2023-05-24T02:00:11.574Z,16.47
2023-05-24T02:02:38.475Z,14.07
2023-05-24T02:05:05.534Z,13.40
2023-05-24T02:07:32.056Z,15.00
2023-05-24T02:09:58.574Z,10.77
2023-05-24T02:12:25.109Z,12.70
2023-05-24T02:14:51.663Z,10.93
2023-05-24T02:17:18.475Z,12.37
2023-05-24T02:19:45.063Z,11.50
2023-05-24T02:22:12.861Z,15.53
2023-05-24T02:24:40.580Z,15.73
2023-05-24T02:27:07.449Z,17.90
2023-05-24T02:29:34.021Z,12.33
2023-05-24T02:32:00.798Z,14.93
2023-05-24T02:34:27.603Z,11.40
2023-05-24T02:36:54.568Z,14.00
2023-05-24T02:39:21.197Z,18.10
2023-05-24T02:41:47.773Z,16.83
2023-05-24T02:44:14.291Z,18.47
2023-05-24T02:46:40.976Z,13.20
2023-05-24T02:49:07.588Z,17.30
2023-05-24T02:51:34.141Z,16.43
2023-05-24T02:54:01.515Z,27.30
2023-05-24T02:56:29.351Z,15.87
2023-05-24T02:58:56.610Z,24.30
2023-05-24T03:01:23.456Z,16.10
2023-05-24T03:03:50.084Z,17.40
2023-05-24T03:06:16.770Z,15.40
2023-05-24T03:08:43.442Z,26.93
2023-05-24T03:11:09.991Z,20.33
2023-05-24T03:13:36.636Z,19.60
2023-05-24T03:16:03.206Z,17.87
2023-05-24T03:18:29.769Z,17.03
2023-05-24T03:20:56.319Z,17.27
2023-05-24T03:23:22.871Z,16.13
2023-05-24T03:25:49.399Z,21.10
2023-05-24T03:28:16.013Z,20.03
2023-05-24T03:30:42.627Z,17.97
2023-05-24T03:33:09.581Z,15.93
2023-05-24T03:35:36.163Z,17.93
2023-05-24T03:38:02.693Z,16.27
2023-05-24T03:40:32.592Z,16.27
2023-05-24T03:43:00.611Z,16.90
2023-05-24T03:45:38.509Z,15.63
2023-05-24T03:48:06.169Z,15.40
2023-05-24T03:50:32.739Z,19.20
2023-05-24T03:52:59.327Z,18.87
2023-05-24T03:55:25.861Z,17.60
2023-05-24T03:57:52.437Z,14.93
2023-05-24T04:00:19.082Z,18.30
2023-05-24T04:02:46.177Z,16.40
2023-05-24T04:05:15.261Z,15.27
2023-05-24T04:07:42.495Z,15.43
2023-05-24T04:10:09.494Z,17.60
2023-05-24T04:12:36.428Z,16.57
2023-05-24T04:15:03.673Z,13.27
2023-05-24T04:17:35.125Z,20.20
2023-05-24T04:20:02.264Z,12.57
2023-05-24T04:22:29.737Z,15.97
2023-05-24T04:24:56.288Z,18.50
2023-05-24T04:27:22.949Z,13.40
2023-05-24T04:29:50.086Z,17.47
2023-05-24T04:32:18.032Z,21.23
2023-05-24T04:34:46.144Z,20.00
2023-05-24T04:37:14.354Z,22.07
2023-05-24T04:39:41.792Z,30.87
2023-05-24T04:42:08.357Z,12.03
2023-05-24T04:44:34.996Z,18.50
2023-05-24T04:47:04.028Z,19.47
2023-05-24T04:49:30.657Z,18.70
2023-05-24T04:51:57.276Z,14.30
2023-05-24T04:54:24.424Z,15.00
2023-05-24T04:56:50.989Z,21.03
2023-05-24T04:59:17.578Z,27.03
2023-05-24T05:01:44.833Z,15.73
2023-05-24T05:04:12.869Z,16.80
2023-05-24T05:06:40.683Z,27.67
2023-05-24T05:09:11.928Z,23.53
2023-05-24T05:11:38.639Z,26.23
2023-05-24T05:14:05.552Z,16.83
2023-05-24T05:16:33.117Z,19.10
2023-05-24T05:18:59.687Z,16.50
2023-05-24T05:21:26.211Z,18.47
2023-05-24T05:23:52.769Z,15.47
2023-05-24T05:26:19.276Z,15.87
2023-05-24T05:28:46.297Z,17.53
2023-05-24T05:31:12.947Z,24.77
2023-05-24T05:33:39.559Z,15.87
2023-05-24T05:36:06.835Z,15.53
2023-05-24T05:38:33.387Z,17.27
2023-05-24T05:40:59.933Z,18.50
2023-05-24T05:43:26.491Z,14.57
2023-05-24T05:45:53.016Z,13.93
2023-05-24T05:48:19.634Z,21.10
2023-05-24T05:50:46.179Z,16.23
2023-05-24T05:53:12.768Z,18.87
2023-05-24T05:55:39.240Z,27.10
2023-05-24T05:58:05.825Z,18.80
2023-05-24T06:00:32.355Z,17.53
2023-05-24T06:02:58.981Z,17.87
2023-05-24T06:05:25.647Z,17.17
2023-05-24T06:07:52.186Z,17.17
2023-05-24T06:10:18.710Z,18.90
2023-05-24T06:12:45.235Z,21.67
2023-05-24T06:15:12.322Z,15.40
2023-05-24T06:17:38.966Z,18.20
2023-05-24T06:20:15.525Z,22.93
2023-05-24T06:22:43.036Z,20.27
2023-05-24T06:25:09.668Z,19.30
2023-05-24T06:27:38.765Z,20.50
2023-05-24T06:30:05.742Z,24.23
2023-05-24T06:32:32.478Z,21.07
2023-05-24T06:34:59.037Z,18.40
2023-05-24T06:37:25.765Z,19.47
2023-05-24T06:39:52.414Z,25.23
2023-05-24T06:42:19.064Z,21.17
2023-05-24T06:44:45.685Z,15.57
2023-05-24T06:47:12.322Z,15.73
2023-05-24T06:49:39.305Z,25.17
2023-05-24T06:52:07.962Z,24.20
2023-05-24T06:54:34.712Z,21.17
2023-05-24T06:57:01.252Z,20.23
2023-05-24T06:59:27.836Z,21.57
2023-05-24T07:01:59.506Z,20.67
2023-05-24T07:04:28.547Z,20.40
2023-05-24T07:06:55.240Z,24.73
2023-05-24T07:09:21.794Z,23.60
2023-05-24T07:11:48.748Z,18.57
2023-05-24T07:14:15.733Z,21.07
2023-05-24T07:16:42.355Z,14.47
2023-05-24T07:19:08.955Z,23.80
2023-05-24T07:21:36.280Z,27.33
2023-05-24T07:24:04.112Z,26.93
2023-05-24T07:26:30.696Z,17.83
2023-05-24T07:28:57.300Z,21.20
2023-05-24T07:31:23.845Z,16.93
2023-05-24T07:33:52.900Z,16.77
2023-05-24T07:36:19.451Z,22.40
2023-05-24T07:38:50.335Z,22.57
2023-05-24T07:41:17.305Z,20.87
2023-05-24T07:43:52.201Z,24.50
2023-05-24T07:46:18.841Z,20.77
2023-05-24T07:49:01.450Z,17.97
2023-05-24T07:51:28.248Z,14.57
2023-05-24T07:53:55.050Z,24.17
2023-05-24T07:56:21.584Z,21.60
2023-05-24T07:58:49.457Z,20.80
2023-05-24T08:01:16.054Z,18.50
2023-05-24T08:03:42.721Z,20.23
2023-05-24T08:06:11.975Z,17.00
2023-05-24T08:08:38.989Z,15.13
2023-05-24T08:11:05.523Z,16.97
2023-05-24T08:13:32.538Z,16.73
2023-05-24T08:16:02.079Z,17.93
2023-05-24T08:18:28.953Z,13.67
2023-05-24T08:20:55.539Z,16.97
2023-05-24T08:23:22.088Z,18.10
2023-05-24T08:25:48.906Z,16.53
2023-05-24T08:28:17.112Z,18.80
2023-05-24T08:30:43.842Z,14.60
2023-05-24T08:33:10.694Z,13.23
2023-05-24T08:35:37.644Z,24.20
2023-05-24T08:38:04.203Z,14.73
2023-05-24T08:40:30.796Z,17.57
2023-05-24T08:42:59.525Z,17.83
2023-05-24T08:45:26.484Z,14.77
2023-05-24T08:47:54.414Z,16.17
2023-05-24T08:50:21.416Z,20.27
2023-05-24T08:52:48.040Z,19.27
2023-05-24T08:55:15.051Z,14.30
2023-05-24T08:57:42.032Z,18.80
2023-05-24T09:00:11.514Z,18.03
2023-05-24T09:02:44.702Z,17.07
2023-05-24T09:05:12.086Z,16.33
2023-05-24T09:07:39.120Z,16.93
2023-05-24T09:10:07.039Z,15.80
2023-05-24T09:12:38.039Z,17.80
2023-05-24T09:15:06.602Z,13.43
2023-05-24T09:17:34.757Z,16.70
2023-05-24T09:20:01.601Z,16.93
2023-05-24T09:22:30.911Z,14.03
2023-05-24T09:24:58.256Z,16.97
2023-05-24T09:27:24.779Z,12.57
2023-05-24T09:29:54.286Z,12.93
2023-05-24T09:32:24.605Z,17.77
2023-05-24T09:34:54.699Z,14.37
2023-05-24T09:37:28.809Z,9.50
2023-05-24T09:39:58.575Z,13.53
2023-05-24T09:42:26.832Z,12.23
2023-05-24T09:45:00.869Z,13.07
2023-05-24T09:47:35.103Z,14.13
2023-05-24T09:50:03.521Z,15.87
2023-05-24T09:52:30.161Z,11.33
2023-05-24T09:54:56.823Z,11.57
2023-05-24T09:57:23.812Z,13.03
2023-05-24T09:59:50.855Z,12.47
2023-05-24T10:02:20.566Z,14.10
2023-05-24T10:04:48.014Z,12.03
2023-05-24T10:07:15.639Z,16.40
2023-05-24T10:09:42.815Z,9.73
2023-05-24T10:12:09.391Z,13.07
2023-05-24T10:14:39.135Z,10.43
2023-05-24T10:17:06.972Z,14.27
2023-05-24T10:19:34.020Z,13.03
2023-05-24T10:22:01.560Z,10.70
2023-05-24T10:24:31.458Z,14.97
2023-05-24T10:26:59.171Z,13.97
2023-05-24T10:29:46.111Z,15.93
2023-05-24T10:32:14.635Z,10.23
2023-05-24T10:34:41.760Z,11.80
2023-05-24T10:37:09.795Z,12.83
2023-05-24T10:39:36.400Z,12.10
2023-05-24T10:42:04.526Z,12.73
2023-05-24T10:44:32.451Z,9.47
2023-05-24T10:47:03.430Z,9.60
2023-05-24T10:49:30.051Z,13.27
2023-05-24T10:52:07.211Z,13.03
2023-05-24T10:54:33.910Z,15.13
2023-05-24T10:57:03.566Z,15.03
2023-05-24T10:59:40.143Z,12.37
2023-05-24T11:02:10.114Z,11.77
2023-05-24T11:04:38.074Z,14.97
2023-05-24T11:07:05.730Z,10.97
2023-05-24T11:09:35.880Z,12.90
2023-05-24T11:12:04.401Z,8.70
2023-05-24T11:14:32.161Z,11.60
2023-05-24T11:17:00.446Z,11.47
2023-05-24T11:19:32.797Z,9.43
2023-05-24T11:21:59.983Z,11.90
2023-05-24T11:24:27.142Z,13.53
2023-05-24T11:26:54.169Z,13.13
2023-05-24T11:29:24.311Z,13.10
2023-05-24T11:31:55.286Z,12.50
2023-05-24T11:34:22.041Z,10.17
2023-05-24T11:36:48.904Z,10.37
2023-05-24T11:39:16.571Z,7.67
2023-05-24T11:41:43.397Z,11.37
2023-05-24T11:44:10.852Z,10.73
2023-05-24T11:46:39.388Z,7.70
2023-05-24T11:49:07.173Z,10.07
2023-05-24T11:51:34.573Z,13.10
2023-05-24T11:54:01.474Z,10.97
2023-05-24T11:56:32.301Z,16.40
2023-05-24T11:59:10.341Z,14.37
2023-05-24T12:01:38.322Z,9.50
2023-05-24T12:04:10.973Z,13.87
2023-05-24T12:06:41.725Z,13.67
2023-05-24T12:09:09.139Z,15.17
2023-05-24T12:11:39.693Z,17.07
2023-05-24T12:14:06.395Z,7.43
2023-05-24T12:16:33.546Z,13.33
2023-05-24T12:19:06.929Z,10.43
2023-05-24T12:21:41.668Z,13.20
2023-05-24T12:24:12.325Z,8.13
2023-05-24T12:26:43.184Z,10.27
2023-05-24T12:29:11.782Z,13.87
2023-05-24T12:31:45.090Z,12.10
2023-05-24T12:34:13.049Z,11.83
2023-05-24T12:36:40.087Z,12.13
2023-05-24T12:39:31.270Z,9.43
2023-05-24T12:41:58.964Z,17.13
2023-05-24T12:44:26.060Z,10.63
2023-05-24T12:47:11.138Z,14.33
2023-05-24T12:49:37.813Z,14.67
2023-05-24T12:52:04.723Z,13.77
2023-05-24T12:54:34.731Z,12.80
2023-05-24T12:57:02.935Z,10.30
2023-05-24T12:59:29.727Z,10.10
2023-05-24T13:01:56.645Z,13.17
2023-05-24T13:04:24.523Z,6.13
2023-05-24T13:06:51.251Z,7.80
2023-05-24T13:09:22.052Z,11.57
2023-05-24T13:11:48.667Z,13.00
2023-05-24T13:14:16.948Z,12.50
2023-05-24T13:16:44.508Z,13.87
2023-05-24T13:19:13.944Z,10.70
2023-05-24T13:21:40.688Z,13.33
2023-05-24T13:24:09.270Z,13.23
2023-05-24T13:26:39.112Z,14.07
2023-05-24T13:31:38.296Z,9.03
2023-05-24T13:34:05.338Z,10.37
2023-05-24T13:36:32.295Z,11.30
2023-05-24T13:39:13.495Z,10.37
2023-05-24T13:41:48.464Z,10.27
2023-05-24T13:44:15.825Z,12.57
2023-05-24T13:46:44.609Z,16.37
2023-05-24T13:49:11.560Z,8.23
2023-05-24T13:51:38.986Z,9.77
2023-05-24T13:54:07.642Z,7.27
2023-05-24T13:56:35.182Z,8.23
2023-05-24T13:59:04.051Z,8.07
2023-05-24T14:01:31.380Z,10.70
2023-05-24T14:03:58.021Z,12.30
2023-05-24T14:06:24.689Z,8.90
2023-05-24T14:08:59.638Z,9.73
2023-05-24T14:11:26.901Z,9.23
2023-05-24T14:16:23.591Z,8.23
2023-05-24T14:18:51.870Z,9.53
2023-05-24T14:21:19.696Z,11.80
2023-05-24T14:23:46.353Z,10.33
2023-05-24T14:26:13.187Z,9.50
2023-05-24T14:28:39.779Z,9.27
2023-05-24T14:31:06.522Z,13.37
2023-05-24T14:33:33.109Z,10.90
2023-05-24T14:35:59.694Z,8.80
2023-05-24T14:38:27.323Z,8.40
2023-05-24T14:40:54.220Z,8.80
2023-05-24T14:43:20.854Z,9.70
2023-05-24T14:45:47.688Z,6.23
2023-05-24T14:48:16.224Z,8.50
2023-05-24T14:50:43.468Z,5.30
2023-05-24T14:53:12.644Z,10.27
2023-05-24T14:55:41.139Z,7.83
2023-05-24T14:58:09.471Z,5.67
2023-05-24T15:00:36.888Z,11.03
2023-05-24T15:03:03.662Z,9.90
2023-05-24T15:05:30.403Z,10.50
2023-05-24T15:07:59.332Z,10.17
2023-05-24T15:10:25.905Z,7.50
2023-05-24T15:12:52.596Z,9.37
2023-05-24T15:15:20.410Z,13.67
2023-05-24T15:17:47.473Z,8.43
2023-05-24T15:20:14.106Z,7.70
2023-05-24T15:22:40.675Z,10.93
2023-05-24T15:25:07.776Z,10.20
2023-05-24T15:27:34.544Z,9.00
2023-05-24T15:30:01.132Z,11.20
2023-05-24T15:32:44.832Z,7.30
2023-05-24T15:35:11.689Z,10.37
2023-05-24T15:37:38.594Z,9.97
2023-05-24T15:40:05.851Z,9.63
2023-05-24T15:42:32.399Z,9.00
2023-05-24T15:45:24.579Z,10.53
2023-05-24T15:47:51.323Z,10.10
2023-05-24T15:50:23.625Z,8.83
2023-05-24T15:52:56.475Z,10.03
2023-05-24T15:55:22.980Z,9.10
2023-05-24T15:57:59.793Z,12.30
2023-05-24T16:00:26.453Z,9.37
2023-05-24T16:02:53.756Z,10.37
2023-05-24T16:05:21.181Z,9.83
2023-05-24T16:07:47.875Z,8.50
2023-05-24T16:10:14.425Z,7.73
2023-05-24T16:12:41.062Z,13.50
2023-05-24T16:15:07.955Z,15.70
2023-05-24T16:17:34.534Z,7.30
2023-05-24T16:20:01.666Z,10.60
2023-05-24T16:22:28.370Z,11.20
2023-05-24T16:24:57.249Z,10.90
2023-05-24T16:27:23.986Z,16.80
2023-05-24T16:29:50.709Z,10.23
2023-05-24T16:32:17.374Z,13.20
2023-05-24T16:34:56.049Z,9.80
2023-05-24T16:37:23.878Z,9.10
2023-05-24T16:39:50.596Z,9.10
2023-05-24T16:42:17.134Z,9.30
2023-05-24T16:44:43.774Z,9.97
2023-05-24T16:47:10.490Z,9.80
2023-05-24T16:49:37.086Z,13.07
2023-05-24T16:52:03.676Z,7.83
2023-05-24T16:54:30.234Z,11.50
2023-05-24T16:56:56.921Z,13.67
2023-05-24T16:59:23.487Z,12.50
2023-05-24T17:01:51.716Z,10.87
2023-05-24T17:04:19.024Z,12.10
2023-05-24T17:06:45.687Z,11.87
2023-05-24T17:09:12.293Z,8.00
2023-05-24T17:11:38.977Z,15.53
2023-05-24T17:14:05.527Z,8.97
2023-05-24T17:16:32.141Z,9.47
2023-05-24T17:18:58.748Z,10.30
2023-05-24T17:21:28.194Z,11.93
2023-05-24T17:23:55.678Z,9.27
2023-05-24T17:26:26.434Z,8.07
2023-05-24T17:28:54.365Z,11.60
2023-05-24T17:31:21.153Z,8.17
2023-05-24T17:33:47.771Z,9.27
2023-05-24T17:36:15.094Z,11.87
2023-05-24T17:38:42.103Z,7.93
2023-05-24T17:41:10.017Z,9.63
2023-05-24T17:43:39.174Z,13.10
2023-05-24T17:46:09.589Z,8.33
2023-05-24T17:48:37.001Z,11.30
2023-05-24T17:51:04.739Z,11.73
2023-05-24T17:53:32.497Z,10.00
2023-05-24T17:56:02.020Z,7.90
2023-05-24T17:58:30.931Z,15.03
2023-05-24T18:00:57.518Z,10.23
2023-05-24T18:03:24.350Z,8.97
2023-05-24T18:05:54.920Z,11.43
2023-05-24T18:08:21.771Z,9.33
2023-05-24T18:10:48.387Z,7.53
2023-05-24T18:13:14.936Z,8.90
2023-05-24T18:15:41.737Z,9.73
2023-05-24T18:18:08.490Z,10.53
2023-05-24T18:20:35.734Z,11.37
2023-05-24T18:23:02.496Z,12.13
2023-05-24T18:25:29.065Z,8.47
2023-05-24T18:27:55.822Z,8.60
2023-05-24T18:30:22.391Z,9.30
2023-05-24T18:33:04.529Z,11.07
2023-05-24T18:35:33.920Z,8.47
2023-05-24T18:38:00.517Z,8.63
2023-05-24T18:40:27.116Z,9.47
2023-05-24T18:42:55.682Z,9.70
2023-05-24T18:45:22.939Z,9.07
2023-05-24T18:47:49.570Z,10.07
2023-05-24T18:50:16.655Z,10.30
2023-05-24T18:52:43.170Z,9.17
2023-05-24T18:55:12.673Z,10.77
2023-05-24T18:57:39.498Z,9.83
2023-05-24T19:00:07.455Z,12.03
2023-05-24T19:02:41.015Z,10.70
2023-05-24T19:05:08.007Z,9.50
2023-05-24T19:07:35.162Z,11.50
2023-05-24T19:10:01.866Z,11.77
2023-05-24T19:12:28.404Z,11.30
2023-05-24T19:14:55.004Z,10.63
2023-05-24T19:17:24.272Z,8.87
2023-05-24T19:19:51.275Z,9.33
2023-05-24T19:22:17.897Z,8.80
2023-05-24T19:24:44.476Z,10.00
2023-05-24T19:27:11.173Z,9.73
2023-05-24T19:29:38.508Z,9.83
2023-05-24T19:32:05.280Z,9.37
2023-05-24T19:34:33.211Z,10.73
2023-05-24T19:36:59.730Z,9.30
2023-05-24T19:39:26.273Z,7.50
2023-05-24T19:41:52.865Z,12.47
2023-05-24T19:44:19.475Z,10.80
2023-05-24T19:46:46.275Z,9.57
2023-05-24T19:49:13.772Z,12.60
2023-05-24T19:51:40.430Z,9.43
2023-05-24T19:54:09.390Z,9.37
2023-05-24T19:56:36.347Z,10.10
2023-05-24T19:59:03.015Z,11.63
2023-05-24T20:01:32.613Z,7.63
2023-05-24T20:03:59.220Z,6.63
2023-05-24T20:06:26.497Z,10.03
2023-05-24T20:08:53.128Z,9.87
2023-05-24T20:11:19.706Z,9.43
2023-05-24T20:13:46.272Z,9.63
2023-05-24T20:16:13.421Z,8.23
2023-05-24T20:18:40.025Z,9.67
2023-05-24T20:21:06.624Z,10.50
2023-05-24T20:23:33.143Z,11.43
2023-05-24T20:25:59.703Z,10.17
2023-05-24T20:28:31.493Z,8.27
2023-05-24T20:30:58.691Z,8.40
2023-05-24T20:33:25.264Z,8.83
2023-05-24T20:35:53.197Z,9.43
2023-05-24T20:38:20.076Z,8.50
2023-05-24T20:40:46.735Z,7.30
2023-05-24T20:43:13.309Z,8.23
2023-05-24T20:45:40.030Z,8.93
2023-05-24T20:48:06.828Z,9.83
2023-05-24T20:50:33.526Z,8.87
2023-05-24T20:53:00.081Z,9.30
2023-05-24T20:55:27.222Z,8.33
2023-05-24T20:57:54.029Z,9.43
2023-05-24T21:00:20.605Z,9.87
2023-05-24T21:02:47.482Z,8.97
2023-05-24T21:05:14.152Z,7.93
2023-05-24T21:07:40.785Z,7.77
2023-05-24T21:10:07.864Z,8.77
2023-05-24T21:12:34.444Z,7.63
2023-05-24T21:15:01.333Z,12.97
2023-05-24T21:17:27.926Z,8.63
2023-05-24T21:19:54.841Z,11.03
2023-05-24T21:22:21.480Z,9.13
2023-05-24T21:24:48.051Z,8.53
2023-05-24T21:27:17.060Z,8.30
2023-05-24T21:29:43.613Z,9.37
2023-05-24T21:32:10.551Z,10.13
2023-05-24T21:34:37.168Z,8.90
2023-05-24T21:37:05.164Z,9.33
2023-05-24T21:39:32.304Z,6.97
2023-05-24T21:41:58.855Z,10.07
2023-05-24T21:44:25.416Z,9.87
2023-05-24T21:46:52.153Z,9.07
2023-05-24T21:49:19.139Z,12.13
2023-05-24T21:51:48.256Z,8.10
2023-05-24T21:54:15.217Z,7.63
2023-05-24T21:56:41.831Z,11.80
2023-05-24T21:59:08.381Z,10.60
2023-05-24T22:01:35.003Z,9.63
2023-05-24T22:04:01.614Z,10.83
2023-05-24T22:06:28.221Z,6.93
2023-05-24T22:08:55.857Z,7.63
2023-05-24T22:11:22.509Z,8.80
2023-05-24T22:13:49.084Z,9.13
2023-05-24T22:16:15.715Z,10.37
2023-05-24T22:18:42.269Z,9.50
2023-05-24T22:21:08.844Z,8.23
2023-05-24T22:23:35.381Z,10.63
2023-05-24T22:26:02.036Z,7.77
2023-05-24T22:28:29.089Z,8.13
2023-05-24T22:30:55.653Z,11.60
2023-05-24T22:33:22.173Z,7.50
2023-05-24T22:35:48.759Z,13.20
2023-05-24T22:38:15.288Z,10.10
2023-05-24T22:40:42.379Z,10.53
2023-05-24T22:43:11.320Z,9.23
2023-05-24T22:45:37.874Z,11.90
2023-05-24T22:48:06.917Z,12.17
2023-05-24T22:50:33.841Z,10.40
2023-05-24T22:53:00.380Z,12.77
2023-05-24T22:55:26.919Z,11.17
2023-05-24T22:57:53.636Z,8.13
2023-05-24T23:00:20.773Z,7.07
2023-05-24T23:02:47.456Z,12.67
2023-05-24T23:05:14.152Z,9.50
2023-05-24T23:07:40.796Z,9.90
2023-05-24T23:10:08.354Z,10.87
2023-05-24T23:12:35.967Z,10.13
2023-05-24T23:15:02.500Z,13.00
2023-05-24T23:17:29.132Z,8.50
2023-05-24T23:19:55.764Z,11.37
2023-05-24T23:22:23.879Z,7.50
2023-05-24T23:24:50.885Z,7.73
2023-05-24T23:27:17.599Z,8.17
2023-05-24T23:29:44.203Z,9.90
2023-05-24T23:32:12.484Z,7.40
2023-05-24T23:34:41.371Z,9.33
2023-05-24T23:37:07.940Z,9.37
2023-05-24T23:39:34.829Z,7.03
2023-05-24T23:42:02.643Z,13.37
2023-05-24T23:44:29.606Z,10.67
2023-05-24T23:46:56.533Z,11.30
2023-05-24T23:49:23.201Z,10.43
2023-05-24T23:51:49.794Z,10.87
2023-05-24T23:54:16.375Z,9.10
2023-05-24T23:56:42.969Z,7.40
2023-05-24T23:59:09.565Z,9.37
